createdAt,value
2018-09-03T19:36:28.238Z,7.50
2018-09-03T19:41:52.468Z,7.63
2018-09-03T19:44:20.035Z,6.83
2018-09-03T19:46:47.613Z,7.60
2018-09-03T19:49:15.257Z,7.97
2018-09-03T19:51:42.791Z,8.83
2018-09-03T19:54:10.344Z,8.17
2018-09-03T19:56:37.954Z,8.57
2018-09-03T19:59:05.524Z,8.60
2018-09-03T20:01:33.086Z,8.17
2018-09-03T20:04:01.109Z,10.10
2018-09-03T20:06:28.688Z,9.40
2018-09-03T20:08:56.246Z,9.95
2018-09-03T20:11:23.854Z,8.27
2018-09-03T20:13:52.172Z,8.30
2018-09-03T20:16:19.736Z,8.40
2018-09-03T20:18:47.387Z,7.93
2018-09-03T20:21:14.941Z,8.50
2018-09-03T20:23:42.610Z,7.93
2018-09-03T20:26:10.141Z,7.93
2018-09-03T20:28:38.507Z,8.53
2018-09-03T20:31:06.163Z,7.67
2018-09-03T20:33:33.637Z,7.90
2018-09-03T20:36:01.964Z,7.90
2018-09-03T20:38:29.530Z,10.70
2018-09-03T20:40:57.142Z,11.37
2018-09-03T20:43:25.471Z,10.77
2018-09-03T20:45:53.036Z,11.83
2018-09-03T20:48:20.644Z,11.20
2018-09-03T20:50:48.977Z,11.60
2018-09-03T20:53:16.550Z,11.87
2018-09-03T20:55:44.157Z,10.87
2018-09-03T20:58:12.501Z,10.70
2018-09-03T21:00:40.047Z,11.30
2018-09-03T21:03:07.791Z,12.13
2018-09-03T21:05:35.351Z,13.30
2018-09-03T21:08:02.916Z,10.60
2018-09-03T21:10:30.617Z,10.97
2018-09-03T21:12:58.147Z,10.13
2018-09-03T21:15:25.711Z,10.37
2018-09-03T21:17:53.317Z,9.90
2018-09-03T21:20:20.886Z,11.43
2018-09-03T21:22:48.445Z,10.27
2018-09-03T21:25:17.086Z,10.27
2018-09-03T21:27:44.644Z,9.90
2018-09-03T21:30:12.201Z,9.23
2018-09-03T21:32:39.828Z,10.43
2018-09-03T21:35:07.397Z,9.30
2018-09-03T21:37:34.963Z,10.47
2018-09-03T21:40:02.811Z,10.00
2018-09-03T21:42:30.369Z,9.90
2018-09-03T21:44:57.935Z,9.40
2018-09-03T21:47:25.584Z,9.23
2018-09-03T21:49:53.141Z,8.70
2018-09-03T21:52:20.696Z,9.17
2018-09-03T21:54:49.072Z,9.67
2018-09-03T21:57:17.400Z,9.70
2018-09-03T21:59:44.962Z,9.33
2018-09-03T22:02:13.034Z,9.90
2018-09-03T22:04:40.598Z,10.27
2018-09-03T22:07:08.166Z,9.53
2018-09-03T22:09:35.851Z,8.93
2018-09-03T22:12:03.420Z,11.12
2018-09-03T22:14:30.993Z,10.60
2018-09-03T22:16:59.706Z,10.20
2018-09-03T22:19:27.269Z,10.73
2018-09-03T22:21:54.835Z,10.47
2018-09-03T22:24:22.431Z,9.90
2018-09-03T22:26:49.989Z,10.50
2018-09-03T22:29:17.552Z,13.70
2018-09-03T22:31:45.151Z,13.85
2018-09-03T22:34:12.724Z,14.07
2018-09-03T22:36:40.291Z,10.53
2018-09-03T22:39:08.013Z,11.20
2018-09-03T22:41:35.532Z,10.40
2018-09-03T22:44:03.094Z,11.37
2018-09-03T22:46:30.707Z,10.50
2018-09-03T22:48:59.032Z,9.67
2018-09-03T22:51:26.589Z,9.80
2018-09-03T22:53:54.187Z,10.10
2018-09-03T22:56:21.754Z,10.13
2018-09-03T22:58:50.077Z,10.30
2018-09-03T23:01:18.501Z,10.77
2018-09-03T23:03:46.064Z,10.90
2018-09-03T23:06:13.632Z,10.77
2018-09-03T23:08:42.030Z,11.17
2018-09-03T23:11:09.658Z,13.85
2018-09-03T23:13:37.156Z,11.30
2018-09-03T23:16:04.757Z,10.97
2018-09-03T23:18:32.317Z,11.17
2018-09-03T23:20:59.877Z,10.70
2018-09-03T23:23:27.472Z,11.30
2018-09-03T23:25:55.803Z,11.30
2018-09-03T23:28:23.362Z,11.57
2018-09-03T23:30:50.996Z,11.97
2018-09-03T23:33:19.315Z,13.20
2018-09-03T23:35:46.874Z,12.37
2018-09-03T23:38:14.480Z,13.33
2018-09-03T23:40:42.813Z,13.33
2018-09-03T23:43:10.367Z,12.17
2018-09-03T23:45:37.962Z,13.03
2018-09-03T23:48:05.534Z,14.33
2018-09-03T23:50:33.094Z,13.30
2018-09-03T23:53:00.725Z,13.30
2018-09-03T23:55:28.287Z,13.10
2018-09-03T23:57:55.850Z,15.48
